createdAt,value
2022-12-17T12:49:23.347Z,22.97
2022-12-17T12:52:09.566Z,22.15
2022-12-17T12:55:04.578Z,22.88
2022-12-17T12:58:17.461Z,20.67
2022-12-17T13:01:06.453Z,18.42
2022-12-17T13:04:01.991Z,18.88
2022-12-17T13:06:42.930Z,17.73
2022-12-17T13:09:20.738Z,20.58
2022-12-17T13:12:00.793Z,19.08
2022-12-17T13:14:31.015Z,19.27
2022-12-17T13:17:04.803Z,18.45
2022-12-17T13:19:43.536Z,16.50
2022-12-17T13:22:11.983Z,18.20
2022-12-17T13:24:39.328Z,17.48
2022-12-17T13:27:29.925Z,17.42
2022-12-17T13:29:58.400Z,16.38
2022-12-17T13:32:30.999Z,16.67
2022-12-17T13:35:22.551Z,18.13
2022-12-17T13:38:18.183Z,18.52
2022-12-17T13:40:57.010Z,22.60
2022-12-17T13:43:25.259Z,20.48
2022-12-17T13:45:52.882Z,23.33
2022-12-17T13:48:25.026Z,23.58
2022-12-17T13:51:00.034Z,23.77
2022-12-17T13:53:28.022Z,24.75
2022-12-17T13:55:57.073Z,25.90
2022-12-17T13:58:26.639Z,24.45
2022-12-17T14:01:16.239Z,24.85
2022-12-17T14:04:05.972Z,23.60
2022-12-17T14:06:35.927Z,19.45
2022-12-17T14:09:03.806Z,21.63
2022-12-17T14:11:50.670Z,23.50
2022-12-17T14:14:29.073Z,22.40
2022-12-17T14:16:56.443Z,24.55
2022-12-17T14:19:24.274Z,22.90
2022-12-17T14:21:51.647Z,20.70
2022-12-17T14:24:20.575Z,20.55
2022-12-17T14:26:52.242Z,20.40
2022-12-17T14:29:28.474Z,20.38
2022-12-17T14:32:00.274Z,16.30
2022-12-17T14:34:27.655Z,18.98
2022-12-17T14:36:59.171Z,16.02
2022-12-17T14:39:28.776Z,15.13
2022-12-17T14:42:15.500Z,15.13
2022-12-17T14:44:51.295Z,13.55
2022-12-17T14:47:22.548Z,13.65
2022-12-17T14:50:07.267Z,13.63
2022-12-17T14:52:45.484Z,13.23
2022-12-17T14:55:31.452Z,13.55
2022-12-17T14:58:13.972Z,13.57
2022-12-17T15:01:04.513Z,12.73
2022-12-17T15:03:33.024Z,13.00
2022-12-17T15:06:05.209Z,13.55
2022-12-17T15:08:43.124Z,13.32
2022-12-17T15:11:11.818Z,12.63
2022-12-17T15:13:39.313Z,12.48
2022-12-17T15:16:07.004Z,13.48
2022-12-17T15:18:34.596Z,13.68
2022-12-17T15:21:02.347Z,13.05
2022-12-17T15:23:31.891Z,13.57
2022-12-17T15:25:59.360Z,12.80
2022-12-17T15:28:26.544Z,12.48
2022-12-17T15:30:53.897Z,12.68
2022-12-17T15:33:21.217Z,12.43
2022-12-17T15:35:48.538Z,12.60
2022-12-17T15:38:15.799Z,12.15
2022-12-17T15:40:43.056Z,12.82
2022-12-17T15:43:13.559Z,12.32
2022-12-17T15:45:42.337Z,11.98
2022-12-17T15:48:10.352Z,12.15
2022-12-17T15:50:37.841Z,14.02
2022-12-17T15:53:05.232Z,12.57
2022-12-17T15:55:32.492Z,13.45
2022-12-17T15:58:00.019Z,12.88
2022-12-17T16:00:27.422Z,14.30
2022-12-17T16:02:54.782Z,14.10
2022-12-17T16:05:22.250Z,12.85
2022-12-17T16:07:50.341Z,14.35
2022-12-17T16:10:19.829Z,12.32
2022-12-17T16:12:47.597Z,13.02
2022-12-17T16:15:15.140Z,12.90
2022-12-17T16:17:42.405Z,11.73
2022-12-17T16:20:10.566Z,12.95
2022-12-17T16:22:37.895Z,12.63
2022-12-17T16:25:05.549Z,12.93
2022-12-17T16:27:33.077Z,12.98
2022-12-17T16:30:00.399Z,12.82
2022-12-17T16:32:31.515Z,13.45
2022-12-17T16:35:01.947Z,12.52
2022-12-17T16:37:29.464Z,12.43
2022-12-17T16:39:59.953Z,13.52
2022-12-17T16:42:27.938Z,12.77
2022-12-17T16:44:55.431Z,13.15
2022-12-17T16:47:22.689Z,12.77
2022-12-17T16:49:50.396Z,11.75
2022-12-17T16:52:18.027Z,13.35
2022-12-17T16:54:45.863Z,12.27
2022-12-17T16:57:13.369Z,13.07
2022-12-17T16:59:40.587Z,12.23
2022-12-17T17:02:13.531Z,12.75
2022-12-17T17:04:40.919Z,12.98
2022-12-17T17:07:08.229Z,12.73
2022-12-17T17:09:35.788Z,12.40
2022-12-17T17:12:03.048Z,13.80
2022-12-17T17:14:30.739Z,12.45
2022-12-17T17:16:57.944Z,12.77
2022-12-17T17:19:25.171Z,13.20
2022-12-17T17:21:53.999Z,15.30
2022-12-17T17:24:24.134Z,12.52
2022-12-17T17:26:52.059Z,13.50
2022-12-17T17:29:19.653Z,14.45
2022-12-17T17:34:39.453Z,13.80
2022-12-17T17:37:06.894Z,13.05
2022-12-17T17:39:34.397Z,13.15
2022-12-17T17:42:01.856Z,13.02
2022-12-17T17:44:29.353Z,13.25
2022-12-17T17:46:56.687Z,13.75
2022-12-17T17:49:23.943Z,13.02
2022-12-17T17:54:39.741Z,13.38
2022-12-17T17:57:08.041Z,13.15
2022-12-17T17:59:35.303Z,14.20
2022-12-17T18:02:03.458Z,13.40
2022-12-17T18:04:31.491Z,13.45
2022-12-17T18:09:47.367Z,13.88
2022-12-17T18:12:33.099Z,13.88
2022-12-17T18:15:18.195Z,13.05
2022-12-17T18:17:47.080Z,13.25
2022-12-17T18:20:14.853Z,12.45
2022-12-17T18:22:42.484Z,13.13
2022-12-17T18:25:10.511Z,14.70
2022-12-17T18:27:38.795Z,12.18
2022-12-17T18:30:06.445Z,13.13
2022-12-17T18:32:34.338Z,14.60
2022-12-17T18:35:01.613Z,12.88
2022-12-17T18:37:29.063Z,11.75
2022-12-17T18:39:56.563Z,13.43
2022-12-17T18:42:42.273Z,14.02
2022-12-17T18:45:12.772Z,13.13
2022-12-17T18:47:40.155Z,12.73
2022-12-17T18:50:07.770Z,12.95
2022-12-17T18:52:35.009Z,12.85
2022-12-17T18:55:02.246Z,13.63
2022-12-17T18:57:29.645Z,13.60
2022-12-17T18:59:56.934Z,13.15
2022-12-17T19:02:24.256Z,13.55
2022-12-17T19:04:51.630Z,12.85
2022-12-17T19:07:19.816Z,12.88
2022-12-17T19:09:47.124Z,13.65
2022-12-17T19:12:14.401Z,13.68
2022-12-17T19:14:42.893Z,13.70
2022-12-17T19:17:10.244Z,13.98
2022-12-17T19:19:37.598Z,14.18
2022-12-17T19:22:04.865Z,13.15
2022-12-17T19:24:32.475Z,13.45
2022-12-17T19:27:00.308Z,12.82
2022-12-17T19:29:27.804Z,13.48
2022-12-17T19:31:55.185Z,16.95
2022-12-17T19:34:22.674Z,15.70
2022-12-17T19:36:49.977Z,14.30
2022-12-17T19:39:18.469Z,14.82
2022-12-17T19:41:45.790Z,15.45
2022-12-17T19:44:14.599Z,13.98
2022-12-17T19:46:42.124Z,13.60
2022-12-17T19:49:13.353Z,13.98
2022-12-17T19:54:12.987Z,15.25
2022-12-17T19:56:40.427Z,14.98
2022-12-17T19:59:08.397Z,15.50
2022-12-17T20:01:41.321Z,16.00
2022-12-17T20:04:09.462Z,14.25
2022-12-17T20:06:36.786Z,14.75
2022-12-17T20:09:04.778Z,15.93
2022-12-17T20:11:35.275Z,14.70
2022-12-17T20:14:20.944Z,14.73
2022-12-17T20:16:52.681Z,15.57
2022-12-17T20:19:22.787Z,15.60
2022-12-17T20:21:50.116Z,15.77
2022-12-17T20:24:17.539Z,15.32
2022-12-17T20:26:44.943Z,15.05
2022-12-17T20:29:12.357Z,15.10
2022-12-17T20:31:39.687Z,14.85
2022-12-17T20:34:11.364Z,14.25
2022-12-17T20:36:39.588Z,15.18
2022-12-17T20:39:07.471Z,13.38
2022-12-17T20:41:36.433Z,13.88
2022-12-17T20:44:08.896Z,16.00
2022-12-17T20:46:41.197Z,15.75
2022-12-17T20:49:10.260Z,16.05
2022-12-17T20:51:37.607Z,16.88
2022-12-17T20:54:05.029Z,16.27
2022-12-17T20:56:33.346Z,16.73
2022-12-17T20:59:04.752Z,15.15
2022-12-17T21:04:00.189Z,15.75
2022-12-17T21:06:32.221Z,16.50
2022-12-17T21:08:59.482Z,17.27
2022-12-17T21:11:28.572Z,17.75
2022-12-17T21:13:56.327Z,15.93
2022-12-17T21:16:25.943Z,15.63
2022-12-17T21:18:54.315Z,15.60
2022-12-17T21:21:23.166Z,16.55
2022-12-17T21:23:51.279Z,15.23
2022-12-17T21:26:20.734Z,16.10
2022-12-17T21:28:49.560Z,15.50
2022-12-17T21:31:17.209Z,15.82
2022-12-17T21:33:45.246Z,17.05
2022-12-17T21:36:13.339Z,16.67
2022-12-17T21:38:41.227Z,16.05
2022-12-17T21:41:10.531Z,17.77
2022-12-17T21:43:37.964Z,16.92
2022-12-17T21:46:05.535Z,18.08
2022-12-17T21:48:41.366Z,16.90
2022-12-17T21:51:12.181Z,17.73
2022-12-17T21:53:42.771Z,17.25
2022-12-17T21:56:17.953Z,21.15
2022-12-17T21:58:45.918Z,20.20
2022-12-17T22:01:18.524Z,20.10
2022-12-17T22:03:53.569Z,18.83
2022-12-17T22:06:24.403Z,20.88
2022-12-17T22:08:55.259Z,20.02
2022-12-17T22:11:28.252Z,19.55
2022-12-17T22:14:15.569Z,19.60
2022-12-17T22:16:49.341Z,22.30
2022-12-17T22:19:21.094Z,19.30
2022-12-17T22:21:51.116Z,19.77
2022-12-17T22:24:22.587Z,20.00
2022-12-17T22:26:49.774Z,21.52
2022-12-17T22:29:37.042Z,19.70
2022-12-17T22:32:22.940Z,20.45
2022-12-17T22:36:06.911Z,19.15
2022-12-17T22:39:55.254Z,20.17
2022-12-17T22:43:05.046Z,20.50
